createdAt,value
2019-03-24T00:00:01.733Z,74.60
2019-03-24T00:00:42.752Z,74.60
2019-03-24T00:01:18.455Z,74.46
2019-03-24T00:01:49.639Z,74.37
2019-03-24T00:02:20.804Z,74.36
2019-03-24T00:02:52.018Z,74.29
2019-03-24T00:03:23.180Z,74.29
2019-03-24T00:03:54.404Z,74.20
2019-03-24T00:04:25.594Z,74.02
2019-03-24T00:04:56.783Z,74.26
2019-03-24T00:05:28.073Z,74.07
2019-03-24T00:05:59.251Z,73.99
2019-03-24T00:06:30.422Z,73.88
2019-03-24T00:07:01.603Z,73.94
2019-03-24T00:07:32.774Z,73.95
2019-03-24T00:08:03.948Z,73.89
2019-03-24T00:08:35.136Z,73.80
2019-03-24T00:09:06.621Z,73.84
2019-03-24T00:09:37.807Z,73.87
2019-03-24T00:10:09.020Z,73.85
2019-03-24T00:10:40.205Z,73.79
2019-03-24T00:11:11.395Z,73.55
2019-03-24T00:11:42.576Z,73.57
2019-03-24T00:12:13.756Z,73.48
2019-03-24T00:12:44.946Z,73.55
2019-03-24T00:13:16.142Z,73.57
2019-03-24T00:13:47.348Z,73.66
2019-03-24T00:14:18.539Z,73.63
2019-03-24T00:14:49.737Z,73.50
2019-03-24T00:15:26.338Z,73.57
2019-03-24T00:15:54.001Z,73.61
2019-03-24T00:16:25.181Z,73.55
2019-03-24T00:16:56.361Z,73.59
2019-03-24T00:17:27.749Z,73.67
2019-03-24T00:17:58.939Z,73.67
2019-03-24T00:18:30.137Z,73.85
2019-03-24T00:19:01.313Z,73.73
2019-03-24T00:19:32.517Z,73.99
2019-03-24T00:20:04.882Z,73.99
2019-03-24T00:20:36.079Z,73.64
2019-03-24T00:21:07.245Z,73.64
2019-03-24T00:21:38.463Z,73.73
2019-03-24T00:22:09.602Z,73.71
2019-03-24T00:22:40.815Z,73.90
2019-03-24T00:23:12.007Z,73.63
2019-03-24T00:23:43.196Z,73.63
2019-03-24T00:24:14.348Z,73.74
2019-03-24T00:24:45.539Z,73.73
2019-03-24T00:25:16.696Z,73.69
2019-03-24T00:25:47.906Z,73.76
2019-03-24T00:26:20.178Z,73.63
2019-03-24T00:26:51.399Z,73.31
2019-03-24T00:27:22.565Z,73.31
2019-03-24T00:27:54.000Z,73.62
2019-03-24T00:28:25.149Z,73.62
2019-03-24T00:28:56.347Z,73.45
2019-03-24T00:29:27.610Z,73.59
2019-03-24T00:29:58.854Z,73.67
2019-03-24T00:30:30.010Z,73.67
2019-03-24T00:31:01.254Z,73.67
2019-03-24T00:31:32.497Z,73.67
2019-03-24T00:32:03.706Z,73.70
2019-03-24T00:32:34.937Z,73.62
2019-03-24T00:33:06.155Z,73.66
2019-03-24T00:33:37.314Z,73.66
2019-03-24T00:34:08.516Z,73.55
2019-03-24T00:34:39.717Z,73.71
2019-03-24T00:35:10.908Z,73.71
2019-03-24T00:35:42.382Z,73.53
2019-03-24T00:36:13.575Z,73.51
2019-03-24T00:36:44.736Z,73.55
2019-03-24T00:37:15.964Z,73.73
2019-03-24T00:37:47.107Z,73.73
2019-03-24T00:38:18.321Z,73.61
2019-03-24T00:38:50.542Z,73.53
2019-03-24T00:39:21.777Z,73.63
2019-03-24T00:39:52.973Z,73.48
2019-03-24T00:40:24.136Z,73.47
2019-03-24T00:40:55.337Z,73.38
2019-03-24T00:41:26.507Z,73.46
2019-03-24T00:41:57.785Z,73.48
2019-03-24T00:42:28.939Z,73.48
2019-03-24T00:43:00.150Z,73.56
2019-03-24T00:43:31.316Z,73.51
2019-03-24T00:44:02.516Z,73.57
2019-03-24T00:44:33.675Z,73.46
2019-03-24T00:45:06.366Z,73.56
2019-03-24T00:45:37.514Z,73.47
2019-03-24T00:46:08.701Z,73.21
2019-03-24T00:46:39.859Z,73.21
2019-03-24T00:47:11.107Z,73.58
2019-03-24T00:47:42.269Z,73.62
2019-03-24T00:48:13.485Z,73.62
2019-03-24T00:48:44.670Z,73.60
2019-03-24T00:49:15.890Z,73.25
2019-03-24T00:49:47.065Z,73.39
2019-03-24T00:50:18.276Z,73.55
2019-03-24T00:50:49.412Z,73.57
2019-03-24T00:51:20.626Z,73.55
2019-03-24T00:51:51.793Z,73.58
2019-03-24T00:52:23.004Z,73.69
2019-03-24T00:52:54.193Z,73.59
2019-03-24T00:53:25.412Z,73.60
2019-03-24T00:53:56.574Z,73.67
2019-03-24T00:54:27.816Z,73.66
2019-03-24T00:54:59.008Z,73.66
2019-03-24T00:55:30.239Z,73.69
2019-03-24T00:56:01.485Z,73.77
2019-03-24T00:56:33.741Z,73.76
2019-03-24T00:57:04.917Z,73.72
2019-03-24T00:57:37.643Z,73.73
2019-03-24T00:58:09.053Z,73.92
2019-03-24T00:58:40.274Z,73.71
2019-03-24T00:59:11.461Z,73.78
2019-03-24T00:59:42.655Z,73.74
2019-03-24T01:00:13.866Z,73.76
2019-03-24T01:00:47.557Z,73.77
2019-03-24T01:01:19.031Z,73.79
2019-03-24T01:01:50.261Z,73.41
2019-03-24T01:02:21.441Z,73.78
2019-03-24T01:02:52.630Z,73.68
2019-03-24T01:03:23.999Z,73.68
2019-03-24T01:03:55.177Z,73.91
2019-03-24T01:04:26.365Z,73.81
2019-03-24T01:04:57.599Z,73.82
2019-03-24T01:05:28.819Z,73.79
2019-03-24T01:06:01.790Z,73.80
2019-03-24T01:06:33.126Z,73.82
2019-03-24T01:07:04.391Z,73.72
2019-03-24T01:07:35.625Z,73.78
2019-03-24T01:08:07.004Z,73.67
2019-03-24T01:08:38.172Z,73.96
2019-03-24T01:09:09.365Z,73.96
2019-03-24T01:09:40.549Z,74.12
2019-03-24T01:10:12.131Z,73.77
2019-03-24T01:10:43.283Z,73.79
2019-03-24T01:11:14.500Z,73.65
2019-03-24T01:11:45.664Z,73.85
2019-03-24T01:12:16.873Z,73.85
2019-03-24T01:12:49.038Z,73.85
2019-03-24T01:13:20.265Z,73.45
2019-03-24T01:13:51.464Z,73.45
2019-03-24T01:14:22.650Z,73.52
2019-03-24T01:14:54.035Z,73.48
2019-03-24T01:15:47.114Z,73.76
2019-03-24T01:16:10.176Z,73.76
2019-03-24T01:16:41.401Z,73.63
2019-03-24T01:17:12.557Z,73.68
2019-03-24T01:17:43.856Z,73.68
2019-03-24T01:18:15.056Z,73.76
2019-03-24T01:18:46.327Z,73.48
2019-03-24T01:19:17.480Z,73.48
2019-03-24T01:19:48.694Z,73.73
2019-03-24T01:20:19.969Z,73.55
2019-03-24T01:20:51.157Z,73.45
2019-03-24T01:21:22.305Z,73.45
2019-03-24T01:21:53.508Z,73.63
2019-03-24T01:22:24.669Z,73.53
2019-03-24T01:22:55.875Z,73.55
2019-03-24T01:23:27.168Z,73.55
2019-03-24T01:23:58.375Z,73.51
2019-03-24T01:24:29.553Z,73.38
2019-03-24T01:25:00.754Z,73.18
2019-03-24T01:25:31.950Z,73.15
2019-03-24T01:26:03.162Z,73.61
2019-03-24T01:26:34.397Z,72.96
2019-03-24T01:27:05.603Z,72.96
2019-03-24T01:27:36.794Z,73.41
2019-03-24T01:28:08.023Z,73.14
2019-03-24T01:28:39.291Z,73.35
2019-03-24T01:29:10.523Z,73.35
2019-03-24T01:29:41.756Z,73.31
2019-03-24T01:30:12.976Z,73.14
2019-03-24T01:30:44.182Z,73.40
2019-03-24T01:31:15.347Z,73.19
2019-03-24T01:31:46.550Z,73.10
2019-03-24T01:32:17.704Z,73.01
2019-03-24T01:32:48.908Z,73.01
2019-03-24T01:33:20.079Z,72.70
2019-03-24T01:33:51.295Z,72.73
2019-03-24T01:34:22.455Z,72.73
2019-03-24T01:34:53.738Z,72.51
2019-03-24T01:35:24.898Z,72.51
2019-03-24T01:35:56.094Z,72.81
2019-03-24T01:36:27.260Z,72.58
2019-03-24T01:36:58.494Z,72.58
2019-03-24T01:37:29.647Z,72.70
2019-03-24T01:38:00.922Z,72.54
2019-03-24T01:38:32.078Z,72.54
2019-03-24T01:39:05.772Z,72.54
2019-03-24T01:39:36.949Z,72.61
2019-03-24T01:40:08.548Z,72.54
2019-03-24T01:40:40.736Z,72.41
2019-03-24T01:41:11.937Z,72.35
2019-03-24T01:41:43.098Z,72.44
2019-03-24T01:42:14.315Z,72.44
2019-03-24T01:42:45.469Z,72.45
2019-03-24T01:43:16.684Z,72.59
2019-03-24T01:43:47.834Z,72.81
2019-03-24T01:44:19.054Z,72.81
2019-03-24T01:44:50.220Z,72.06
2019-03-24T01:45:21.422Z,72.06
2019-03-24T01:45:58.435Z,72.10
2019-03-24T01:46:25.742Z,72.10
2019-03-24T01:46:57.199Z,72.25
2019-03-24T01:47:28.429Z,72.25
2019-03-24T01:47:59.666Z,72.03
2019-03-24T01:48:30.923Z,72.07
2019-03-24T01:49:02.148Z,72.15
2019-03-24T01:49:33.379Z,72.15
2019-03-24T01:50:05.052Z,72.05
2019-03-24T01:50:36.339Z,72.25
2019-03-24T01:51:07.547Z,72.25
2019-03-24T01:51:38.692Z,72.13
2019-03-24T01:52:09.907Z,72.04
2019-03-24T01:52:41.059Z,72.04
2019-03-24T01:53:12.279Z,72.13
2019-03-24T01:53:43.433Z,71.61
2019-03-24T01:54:14.660Z,71.90
2019-03-24T01:54:45.843Z,72.01
2019-03-24T01:55:17.043Z,72.01
2019-03-24T01:55:48.224Z,71.78
2019-03-24T01:56:19.438Z,71.79
2019-03-24T01:56:50.658Z,71.79
2019-03-24T01:57:21.867Z,71.67
2019-03-24T01:57:53.054Z,71.78
2019-03-24T01:58:24.316Z,71.70
2019-03-24T01:58:55.488Z,71.70
2019-03-24T01:59:26.676Z,71.99
2019-03-24T01:59:58.882Z,71.99
2019-03-24T02:00:30.162Z,71.93
2019-03-24T02:01:01.329Z,71.95
2019-03-24T02:01:32.512Z,71.73
2019-03-24T02:02:03.747Z,71.73
2019-03-24T02:02:34.916Z,71.59
2019-03-24T02:03:06.104Z,71.53
2019-03-24T02:03:37.304Z,71.57
2019-03-24T02:04:08.503Z,71.57
2019-03-24T02:04:39.670Z,71.60
2019-03-24T02:05:10.870Z,71.70
2019-03-24T02:05:42.105Z,71.70
2019-03-24T02:06:13.313Z,71.54
2019-03-24T02:06:44.473Z,71.84
2019-03-24T02:07:15.673Z,71.84
2019-03-24T02:07:46.830Z,71.65
2019-03-24T02:08:18.030Z,71.65
2019-03-24T02:08:49.184Z,71.61
2019-03-24T02:09:20.418Z,71.42
2019-03-24T02:09:51.585Z,71.43
2019-03-24T02:10:22.815Z,71.43
2019-03-24T02:10:54.101Z,71.44
2019-03-24T02:11:25.330Z,71.44
2019-03-24T02:11:56.521Z,71.31
2019-03-24T02:12:27.771Z,71.58
2019-03-24T02:12:58.915Z,71.58
2019-03-24T02:13:30.128Z,71.44
2019-03-24T02:14:01.278Z,71.44
2019-03-24T02:14:32.487Z,71.38
2019-03-24T02:15:05.849Z,71.67
2019-03-24T02:15:37.049Z,71.67
2019-03-24T02:16:09.588Z,71.40
2019-03-24T02:16:40.951Z,71.43
2019-03-24T02:17:12.111Z,71.43
2019-03-24T02:17:43.309Z,71.10
2019-03-24T02:18:14.459Z,71.64
2019-03-24T02:18:45.671Z,71.45
2019-03-24T02:19:16.837Z,71.45
2019-03-24T02:19:48.052Z,71.43
2019-03-24T02:20:19.311Z,71.39
2019-03-24T02:20:50.521Z,71.41
2019-03-24T02:21:21.680Z,71.41
2019-03-24T02:21:52.912Z,71.41
2019-03-24T02:22:24.158Z,71.43
2019-03-24T02:22:55.390Z,71.43
2019-03-24T02:23:26.634Z,71.40
2019-03-24T02:23:57.962Z,71.45
2019-03-24T02:24:29.224Z,71.40
2019-03-24T02:25:00.457Z,71.54
2019-03-24T02:25:31.706Z,71.51
2019-03-24T02:26:02.924Z,71.51
2019-03-24T02:26:34.141Z,71.67
2019-03-24T02:27:05.291Z,71.67
2019-03-24T02:27:36.497Z,71.55
2019-03-24T02:28:07.681Z,71.55
2019-03-24T02:28:38.907Z,71.41
2019-03-24T02:29:10.104Z,71.39
2019-03-24T02:29:41.286Z,71.41
2019-03-24T02:30:12.819Z,71.45
2019-03-24T02:30:44.030Z,71.56
2019-03-24T02:31:15.274Z,71.56
2019-03-24T02:31:46.482Z,71.34
2019-03-24T02:32:17.645Z,71.50
2019-03-24T02:32:48.859Z,71.49
2019-03-24T02:33:20.022Z,71.42
2019-03-24T02:33:51.239Z,71.38
2019-03-24T02:34:22.393Z,71.34
2019-03-24T02:34:53.590Z,71.34
2019-03-24T02:35:24.763Z,71.35
2019-03-24T02:35:55.946Z,71.35
2019-03-24T02:36:27.140Z,71.37
2019-03-24T02:36:58.352Z,71.34
2019-03-24T02:37:29.509Z,71.31
2019-03-24T02:38:00.734Z,71.31
2019-03-24T02:38:31.966Z,71.25
2019-03-24T02:39:06.089Z,71.30
2019-03-24T02:39:37.400Z,71.34
2019-03-24T02:40:08.734Z,71.33
2019-03-24T02:40:39.967Z,71.54
2019-03-24T02:41:11.194Z,71.54
2019-03-24T02:41:42.466Z,71.51
2019-03-24T02:42:13.594Z,71.51
2019-03-24T02:42:44.798Z,71.52
2019-03-24T02:43:15.985Z,71.52
2019-03-24T02:43:47.185Z,71.42
2019-03-24T02:44:18.355Z,71.51
2019-03-24T02:44:49.558Z,71.34
2019-03-24T02:45:20.722Z,71.34
2019-03-24T02:45:51.945Z,71.70
2019-03-24T02:46:24.934Z,71.70
2019-03-24T02:46:56.298Z,71.88
2019-03-24T02:47:27.453Z,71.52
2019-03-24T02:47:58.653Z,71.51
2019-03-24T02:48:29.831Z,71.56
2019-03-24T02:49:01.049Z,71.56
2019-03-24T02:49:32.250Z,71.49
2019-03-24T02:50:05.242Z,71.52
2019-03-24T02:50:36.388Z,71.52
2019-03-24T02:51:07.619Z,71.42
2019-03-24T02:51:38.792Z,71.52
2019-03-24T02:52:10.008Z,71.52
2019-03-24T02:52:41.150Z,71.27
2019-03-24T02:53:12.364Z,71.31
2019-03-24T02:53:43.530Z,71.31
2019-03-24T02:54:14.756Z,71.49
2019-03-24T02:54:45.903Z,71.49
2019-03-24T02:55:17.114Z,71.26
2019-03-24T02:55:48.282Z,71.45
2019-03-24T02:56:19.496Z,71.28
2019-03-24T02:56:50.689Z,71.28
2019-03-24T02:57:21.938Z,71.57
2019-03-24T02:57:54.137Z,71.57
2019-03-24T02:58:25.320Z,71.48
2019-03-24T02:58:56.480Z,71.42
2019-03-24T02:59:28.733Z,71.37
2019-03-24T02:59:59.895Z,71.40
2019-03-24T03:00:31.096Z,71.41
2019-03-24T03:01:02.257Z,71.42
2019-03-24T03:01:33.471Z,71.32
2019-03-24T03:02:04.652Z,71.32
2019-03-24T03:02:35.843Z,71.44
2019-03-24T03:03:07.008Z,71.44
2019-03-24T03:03:38.184Z,71.34
2019-03-24T03:04:09.371Z,71.45
2019-03-24T03:04:40.547Z,71.45
2019-03-24T03:05:11.839Z,71.45
2019-03-24T03:05:43.010Z,71.34
2019-03-24T03:06:14.188Z,71.21
2019-03-24T03:06:45.391Z,71.40
2019-03-24T03:07:16.565Z,71.58
2019-03-24T03:07:47.740Z,71.53
2019-03-24T03:08:18.926Z,71.45
2019-03-24T03:08:50.102Z,71.45
2019-03-24T03:09:21.291Z,71.49
2019-03-24T03:09:52.575Z,71.46
2019-03-24T03:10:24.152Z,71.46
2019-03-24T03:10:55.334Z,71.40
2019-03-24T03:11:27.554Z,71.47
2019-03-24T03:11:58.777Z,71.33
2019-03-24T03:12:30.001Z,71.33
2019-03-24T03:13:01.185Z,71.44
2019-03-24T03:13:32.379Z,71.37
2019-03-24T03:14:03.568Z,71.46
2019-03-24T03:14:34.736Z,71.38
2019-03-24T03:15:07.511Z,71.46
2019-03-24T03:15:38.703Z,71.59
2019-03-24T03:16:09.874Z,71.59
2019-03-24T03:16:41.077Z,71.56
2019-03-24T03:17:12.274Z,71.48
2019-03-24T03:17:43.440Z,71.42
2019-03-24T03:18:14.659Z,71.41
2019-03-24T03:18:45.829Z,71.41
2019-03-24T03:19:17.036Z,71.82
2019-03-24T03:19:48.212Z,71.48
2019-03-24T03:20:19.401Z,71.32
2019-03-24T03:20:50.577Z,71.32
2019-03-24T03:21:21.778Z,71.39
2019-03-24T03:21:53.949Z,71.19
2019-03-24T03:22:25.166Z,71.35
2019-03-24T03:22:56.339Z,71.35
2019-03-24T03:23:27.862Z,71.09
2019-03-24T03:23:59.016Z,71.37
2019-03-24T03:24:30.221Z,71.31
2019-03-24T03:25:03.704Z,71.18
2019-03-24T03:25:34.924Z,71.24
2019-03-24T03:26:06.072Z,71.24
2019-03-24T03:26:37.273Z,70.98
2019-03-24T03:27:08.441Z,71.05
2019-03-24T03:27:39.646Z,71.05
2019-03-24T03:28:10.812Z,70.89
2019-03-24T03:28:42.001Z,70.89
2019-03-24T03:29:13.176Z,71.02
2019-03-24T03:29:44.369Z,70.94
2019-03-24T03:30:15.584Z,70.88
2019-03-24T03:30:46.850Z,70.88
2019-03-24T03:31:18.025Z,70.96
2019-03-24T03:31:49.212Z,70.91
2019-03-24T03:32:20.399Z,70.93
2019-03-24T03:32:51.592Z,70.93
2019-03-24T03:33:22.889Z,70.50
2019-03-24T03:33:54.149Z,71.04
2019-03-24T03:34:25.355Z,70.94
2019-03-24T03:34:56.636Z,70.98
2019-03-24T03:35:27.784Z,71.21
2019-03-24T03:35:58.984Z,70.87
2019-03-24T03:36:30.152Z,70.87
2019-03-24T03:37:01.364Z,70.96
2019-03-24T03:37:32.577Z,70.81
2019-03-24T03:38:03.897Z,70.84
2019-03-24T03:38:35.153Z,70.84
2019-03-24T03:39:06.465Z,70.99
2019-03-24T03:39:37.707Z,70.91
2019-03-24T03:40:08.950Z,71.04
2019-03-24T03:40:40.185Z,71.04
2019-03-24T03:41:11.424Z,71.08
2019-03-24T03:41:42.658Z,71.08
2019-03-24T03:42:13.884Z,71.19
2019-03-24T03:42:45.114Z,71.19
2019-03-24T03:43:16.270Z,71.17
2019-03-24T03:43:47.504Z,71.14
2019-03-24T03:44:18.669Z,71.14
2019-03-24T03:44:49.869Z,71.17
2019-03-24T03:45:25.825Z,71.15
2019-03-24T03:45:57.119Z,71.15
2019-03-24T03:46:28.267Z,71.27
2019-03-24T03:46:59.500Z,71.27
2019-03-24T03:47:30.693Z,71.37
2019-03-24T03:48:01.908Z,71.30
2019-03-24T03:48:33.043Z,71.30
2019-03-24T03:49:04.299Z,71.30
2019-03-24T03:49:35.462Z,71.27
2019-03-24T03:50:07.461Z,71.25
2019-03-24T03:50:38.616Z,71.21
2019-03-24T03:51:09.814Z,71.26
2019-03-24T03:51:40.972Z,71.25
2019-03-24T03:52:12.185Z,71.34
2019-03-24T03:52:43.472Z,71.23
2019-03-24T03:53:14.712Z,71.26
2019-03-24T03:53:45.998Z,71.26
2019-03-24T03:54:17.226Z,71.26
2019-03-24T03:54:48.463Z,71.29
2019-03-24T03:55:19.691Z,71.29
2019-03-24T03:55:50.919Z,71.34
2019-03-24T03:56:22.149Z,71.28
2019-03-24T03:56:53.384Z,71.19
2019-03-24T03:57:24.765Z,71.19
2019-03-24T03:57:55.980Z,71.35
2019-03-24T03:58:27.124Z,71.38
2019-03-24T03:58:58.322Z,71.42
2019-03-24T03:59:29.488Z,71.50
2019-03-24T04:00:00.661Z,71.60
2019-03-24T04:00:34.692Z,71.60
2019-03-24T04:01:06.973Z,71.54
2019-03-24T04:01:38.140Z,71.34
2019-03-24T04:02:09.284Z,71.36
2019-03-24T04:02:40.465Z,71.36
2019-03-24T04:03:11.646Z,71.49
2019-03-24T04:03:42.892Z,71.49
2019-03-24T04:04:14.128Z,71.51
2019-03-24T04:04:45.291Z,71.60
2019-03-24T04:05:16.502Z,71.60
2019-03-24T04:05:47.662Z,71.54
2019-03-24T04:06:18.865Z,71.45
2019-03-24T04:06:50.027Z,71.45
2019-03-24T04:07:21.222Z,71.49
2019-03-24T04:07:52.420Z,71.24
2019-03-24T04:08:23.622Z,71.24
2019-03-24T04:08:54.793Z,71.45
2019-03-24T04:09:26.053Z,71.21
2019-03-24T04:09:57.607Z,71.25
2019-03-24T04:10:28.863Z,71.25
2019-03-24T04:11:00.011Z,71.12
2019-03-24T04:11:31.365Z,71.10
2019-03-24T04:12:02.585Z,71.05
2019-03-24T04:12:33.785Z,71.13
2019-03-24T04:13:04.966Z,71.08
2019-03-24T04:13:36.224Z,71.05
2019-03-24T04:14:07.408Z,71.05
2019-03-24T04:14:38.604Z,71.03
2019-03-24T04:15:09.783Z,71.06
2019-03-24T04:15:40.978Z,71.18
2019-03-24T04:16:12.158Z,71.18
2019-03-24T04:16:43.326Z,71.04
2019-03-24T04:17:14.553Z,71.12
2019-03-24T04:17:45.729Z,71.10
2019-03-24T04:18:16.929Z,71.17
2019-03-24T04:18:48.202Z,71.25
2019-03-24T04:19:19.428Z,71.21
2019-03-24T04:19:50.607Z,71.21
2019-03-24T04:20:21.784Z,71.22
2019-03-24T04:20:52.972Z,71.21
2019-03-24T04:21:24.148Z,71.22
2019-03-24T04:21:55.348Z,71.23
2019-03-24T04:22:26.525Z,71.23
2019-03-24T04:22:57.730Z,71.05
2019-03-24T04:23:28.890Z,71.07
2019-03-24T04:24:00.071Z,70.91
2019-03-24T04:24:31.259Z,70.91
2019-03-24T04:25:04.845Z,70.94
2019-03-24T04:25:36.023Z,70.95
2019-03-24T04:26:07.208Z,70.88
2019-03-24T04:26:38.387Z,70.88
2019-03-24T04:27:09.580Z,70.90
2019-03-24T04:27:40.825Z,71.02
2019-03-24T04:28:12.028Z,71.02
2019-03-24T04:28:43.207Z,71.00
2019-03-24T04:29:14.389Z,71.12
2019-03-24T04:29:45.590Z,71.17
2019-03-24T04:30:16.760Z,71.09
2019-03-24T04:30:48.041Z,71.11
2019-03-24T04:31:19.204Z,71.08
2019-03-24T04:31:50.422Z,71.08
2019-03-24T04:32:21.559Z,71.03
2019-03-24T04:32:52.868Z,71.14
2019-03-24T04:33:24.145Z,71.14
2019-03-24T04:33:55.395Z,71.09
2019-03-24T04:34:26.623Z,70.92
2019-03-24T04:34:57.852Z,71.05
2019-03-24T04:35:29.189Z,70.92
2019-03-24T04:36:00.422Z,70.92
2019-03-24T04:36:31.651Z,70.82
2019-03-24T04:37:02.872Z,70.91
2019-03-24T04:37:34.122Z,70.84
2019-03-24T04:38:05.369Z,70.84
2019-03-24T04:38:36.782Z,70.69
2019-03-24T04:39:07.931Z,70.69
2019-03-24T04:39:39.170Z,70.53
2019-03-24T04:40:10.448Z,70.54
2019-03-24T04:40:41.711Z,70.54
2019-03-24T04:41:12.889Z,70.71
2019-03-24T04:41:44.098Z,70.71
2019-03-24T04:42:15.264Z,70.48
2019-03-24T04:42:46.485Z,70.44
2019-03-24T04:43:17.659Z,70.44
2019-03-24T04:43:48.873Z,70.74
2019-03-24T04:44:20.036Z,70.67
2019-03-24T04:44:51.289Z,70.62
2019-03-24T04:45:22.889Z,70.52
2019-03-24T04:45:54.098Z,70.52
2019-03-24T04:46:25.300Z,70.60
2019-03-24T04:46:56.495Z,70.60
2019-03-24T04:47:27.697Z,70.50
2019-03-24T04:47:58.897Z,70.86
2019-03-24T04:48:30.101Z,70.86
2019-03-24T04:49:01.366Z,70.86
2019-03-24T04:49:32.511Z,70.91
2019-03-24T04:50:06.490Z,70.91
2019-03-24T04:50:37.674Z,70.91
2019-03-24T04:51:08.892Z,71.02
2019-03-24T04:51:41.061Z,71.22
2019-03-24T04:52:12.285Z,71.11
2019-03-24T04:52:43.549Z,71.11
2019-03-24T04:53:14.737Z,70.92
2019-03-24T04:53:45.925Z,71.20
2019-03-24T04:54:17.190Z,71.20
2019-03-24T04:54:48.415Z,71.29
2019-03-24T04:55:19.645Z,71.29
2019-03-24T04:55:50.885Z,71.29
2019-03-24T04:56:22.117Z,71.31
2019-03-24T04:56:53.368Z,71.48
2019-03-24T04:57:24.676Z,71.34
2019-03-24T04:57:55.921Z,71.34
2019-03-24T04:58:27.145Z,71.52
2019-03-24T04:58:58.353Z,71.72
2019-03-24T04:59:29.585Z,71.78
2019-03-24T05:00:01.293Z,71.78
2019-03-24T05:00:35.146Z,71.78
2019-03-24T05:01:06.369Z,71.92
2019-03-24T05:01:37.525Z,71.86
2019-03-24T05:02:08.747Z,71.91
2019-03-24T05:02:39.926Z,71.94
2019-03-24T05:03:11.127Z,72.19
2019-03-24T05:03:42.303Z,72.19
2019-03-24T05:04:13.490Z,72.08
2019-03-24T05:04:44.650Z,72.14
2019-03-24T05:05:15.883Z,72.25
2019-03-24T05:05:47.058Z,72.25
2019-03-24T05:06:18.289Z,72.22
2019-03-24T05:06:49.445Z,72.22
2019-03-24T05:07:20.649Z,72.30
2019-03-24T05:07:51.787Z,72.27
2019-03-24T05:08:22.991Z,72.30
2019-03-24T05:08:54.178Z,72.32
2019-03-24T05:09:25.731Z,72.47
2019-03-24T05:09:57.156Z,72.21
2019-03-24T05:10:28.415Z,72.21
2019-03-24T05:10:59.644Z,72.43
2019-03-24T05:11:31.978Z,72.43
2019-03-24T05:12:03.211Z,72.56
2019-03-24T05:12:34.461Z,72.48
2019-03-24T05:13:05.702Z,72.62
2019-03-24T05:13:36.927Z,72.62
2019-03-24T05:14:08.143Z,72.65
2019-03-24T05:14:39.306Z,72.66
2019-03-24T05:15:10.519Z,72.66
2019-03-24T05:15:41.691Z,72.84
2019-03-24T05:16:12.885Z,72.84
2019-03-24T05:16:44.073Z,72.82
2019-03-24T05:17:15.291Z,72.85
2019-03-24T05:17:46.436Z,72.90
2019-03-24T05:18:17.626Z,72.96
2019-03-24T05:18:48.787Z,73.02
2019-03-24T05:19:19.987Z,73.03
2019-03-24T05:19:51.243Z,73.03
2019-03-24T05:20:22.427Z,72.98
2019-03-24T05:20:53.615Z,72.97
2019-03-24T05:21:24.788Z,72.90
2019-03-24T05:21:55.967Z,73.00
2019-03-24T05:22:27.200Z,73.01
2019-03-24T05:22:58.388Z,73.09
2019-03-24T05:23:29.576Z,72.81
2019-03-24T05:24:00.806Z,72.97
2019-03-24T05:24:31.978Z,72.97
2019-03-24T05:25:03.620Z,73.02
2019-03-24T05:25:34.848Z,73.12
2019-03-24T05:26:06.095Z,73.13
2019-03-24T05:26:37.308Z,73.13
2019-03-24T05:27:08.750Z,72.99
2019-03-24T05:27:39.979Z,72.99
2019-03-24T05:28:11.210Z,72.86
2019-03-24T05:28:42.439Z,72.93
2019-03-24T05:29:13.658Z,72.74
2019-03-24T05:29:44.848Z,72.75
2019-03-24T05:30:16.034Z,72.75
2019-03-24T05:30:47.215Z,72.80
2019-03-24T05:31:18.396Z,72.80
2019-03-24T05:31:49.568Z,72.55
2019-03-24T05:32:20.780Z,72.62
2019-03-24T05:32:51.952Z,72.56
2019-03-24T05:33:23.123Z,72.62
2019-03-24T05:33:54.300Z,72.63
2019-03-24T05:34:25.474Z,72.60
2019-03-24T05:34:56.697Z,72.57
2019-03-24T05:35:27.907Z,72.58
2019-03-24T05:35:59.091Z,72.58
2019-03-24T05:36:30.288Z,72.65
2019-03-24T05:37:01.455Z,72.60
2019-03-24T05:37:32.641Z,72.54
2019-03-24T05:38:03.821Z,72.54
2019-03-24T05:38:35.002Z,72.64
2019-03-24T05:39:06.235Z,72.56
2019-03-24T05:39:37.480Z,72.72
2019-03-24T05:40:08.639Z,72.72
2019-03-24T05:40:39.849Z,72.70
2019-03-24T05:41:11.962Z,72.70
2019-03-24T05:41:43.302Z,72.65
2019-03-24T05:42:14.475Z,72.85
2019-03-24T05:42:45.689Z,72.77
2019-03-24T05:43:16.872Z,72.80
2019-03-24T05:43:48.091Z,72.53
2019-03-24T05:44:19.265Z,72.65
2019-03-24T05:44:51.432Z,72.44
2019-03-24T05:45:22.638Z,72.55
2019-03-24T05:45:53.932Z,72.57
2019-03-24T05:46:25.125Z,72.57
2019-03-24T05:46:56.305Z,72.57
2019-03-24T05:47:36.776Z,72.59
2019-03-24T05:48:00.616Z,72.47
2019-03-24T05:48:31.799Z,72.47
2019-03-24T05:49:02.978Z,72.42
2019-03-24T05:49:34.172Z,72.42
2019-03-24T05:50:08.852Z,72.42
2019-03-24T05:50:40.080Z,72.40
2019-03-24T05:51:11.245Z,72.36
2019-03-24T05:51:42.449Z,72.29
2019-03-24T05:52:13.624Z,72.30
2019-03-24T05:52:44.887Z,72.38
2019-03-24T05:53:16.039Z,72.38
2019-03-24T05:53:47.245Z,72.18
2019-03-24T05:54:18.395Z,72.22
2019-03-24T05:54:49.569Z,72.34
2019-03-24T05:55:20.738Z,72.34
2019-03-24T05:55:51.921Z,72.39
2019-03-24T05:56:23.114Z,72.35
2019-03-24T05:56:54.327Z,72.35
2019-03-24T05:57:25.621Z,72.23
2019-03-24T05:57:56.917Z,72.23
2019-03-24T05:58:28.109Z,72.06
2019-03-24T05:58:59.301Z,72.39
2019-03-24T05:59:30.483Z,72.42
2019-03-24T06:00:05.208Z,72.44
2019-03-24T06:00:36.470Z,72.36
2019-03-24T06:01:07.687Z,72.36
2019-03-24T06:01:38.918Z,72.36
2019-03-24T06:02:10.149Z,72.27
2019-03-24T06:02:41.388Z,72.08
2019-03-24T06:03:12.627Z,72.19
2019-03-24T06:03:43.880Z,72.17
2019-03-24T06:04:15.107Z,72.03
2019-03-24T06:04:46.313Z,72.13
2019-03-24T06:05:17.493Z,72.15
2019-03-24T06:05:48.710Z,72.15
2019-03-24T06:06:19.858Z,72.07
2019-03-24T06:06:51.074Z,71.55
2019-03-24T06:07:22.231Z,71.55
2019-03-24T06:07:53.449Z,71.61
2019-03-24T06:08:24.608Z,71.96
2019-03-24T06:08:55.821Z,71.81
2019-03-24T06:09:27.099Z,71.81
2019-03-24T06:09:58.304Z,71.81
2019-03-24T06:10:29.476Z,71.85
2019-03-24T06:11:00.697Z,71.56
2019-03-24T06:11:31.854Z,71.56
2019-03-24T06:12:03.069Z,71.87
2019-03-24T06:12:34.223Z,71.74
2019-03-24T06:13:05.432Z,71.45
2019-03-24T06:13:36.654Z,71.34
2019-03-24T06:14:07.877Z,71.53
2019-03-24T06:14:39.061Z,71.59
2019-03-24T06:15:10.282Z,71.59
2019-03-24T06:15:41.436Z,71.39
2019-03-24T06:16:12.695Z,71.39
2019-03-24T06:16:43.870Z,71.36
2019-03-24T06:17:15.112Z,71.18
2019-03-24T06:17:47.988Z,71.06
2019-03-24T06:18:19.367Z,71.06
2019-03-24T06:18:50.543Z,71.07
2019-03-24T06:19:21.750Z,71.07
2019-03-24T06:19:52.969Z,71.04
2019-03-24T06:20:24.145Z,71.04
2019-03-24T06:20:55.342Z,71.04
2019-03-24T06:21:26.609Z,71.02
2019-03-24T06:21:57.803Z,70.83
2019-03-24T06:22:28.989Z,70.88
2019-03-24T06:23:00.155Z,70.88
2019-03-24T06:23:31.349Z,70.71
2019-03-24T06:24:02.527Z,70.67
2019-03-24T06:24:33.724Z,70.67
2019-03-24T06:25:05.302Z,70.61
2019-03-24T06:25:36.449Z,70.34
2019-03-24T06:26:07.661Z,70.34
2019-03-24T06:26:38.815Z,70.46
2019-03-24T06:27:10.027Z,70.46
2019-03-24T06:27:41.199Z,70.68
2019-03-24T06:28:12.418Z,70.55
2019-03-24T06:28:43.587Z,70.55
2019-03-24T06:29:14.981Z,70.70
2019-03-24T06:29:46.165Z,70.70
2019-03-24T06:30:17.447Z,70.74
2019-03-24T06:30:48.626Z,70.63
2019-03-24T06:31:19.813Z,70.63
2019-03-24T06:31:50.996Z,70.59
2019-03-24T06:32:22.186Z,70.51
2019-03-24T06:32:53.348Z,70.51
2019-03-24T06:33:24.534Z,70.67
2019-03-24T06:33:55.720Z,70.23
2019-03-24T06:34:27.016Z,70.15
2019-03-24T06:34:58.210Z,70.15
2019-03-24T06:35:29.390Z,70.15
2019-03-24T06:36:00.585Z,70.35
2019-03-24T06:36:31.770Z,70.35
2019-03-24T06:37:02.955Z,70.41
2019-03-24T06:37:34.541Z,70.33
2019-03-24T06:38:05.718Z,70.41
2019-03-24T06:38:36.916Z,69.99
2019-03-24T06:39:08.161Z,69.75
2019-03-24T06:39:39.404Z,69.75
2019-03-24T06:40:11.003Z,69.92
2019-03-24T06:40:42.182Z,69.92
2019-03-24T06:41:13.435Z,69.57
2019-03-24T06:41:44.655Z,69.33
2019-03-24T06:42:15.898Z,69.13
2019-03-24T06:42:47.132Z,69.13
2019-03-24T06:43:18.360Z,69.27